createdAt,value
2022-10-13T20:03:07.659Z,14.20
2022-10-13T20:08:12.488Z,15.30
2022-10-13T20:13:14.888Z,16.50
2022-10-13T20:18:17.381Z,17.10
2022-10-13T20:23:19.856Z,17.50
2022-10-13T20:28:22.360Z,17.80
2022-10-13T20:33:24.909Z,18.10
2022-10-13T20:38:28.877Z,18.10
2022-10-13T20:43:31.712Z,18.10
2022-10-13T20:49:05.271Z,18.20
2022-10-13T20:54:00.773Z,18.30
2022-10-13T20:59:09.157Z,18.30
2022-10-13T21:04:11.706Z,18.30
2022-10-13T21:09:14.184Z,18.30
2022-10-13T21:14:17.384Z,18.30
2022-10-13T21:19:20.476Z,18.30
2022-10-13T21:24:22.870Z,18.30
2022-10-13T21:29:25.508Z,18.30
2022-10-13T21:34:27.956Z,18.50
2022-10-13T21:39:30.393Z,18.40
2022-10-13T21:44:32.986Z,18.40
2022-10-13T21:49:35.615Z,18.30
2022-10-13T21:54:38.068Z,18.30
2022-10-13T21:59:40.490Z,18.30
2022-10-13T22:04:42.932Z,18.30
2022-10-13T22:09:45.354Z,18.30
2022-10-13T22:14:47.827Z,18.30
2022-10-13T22:19:53.900Z,18.30
2022-10-13T22:24:56.344Z,18.20
2022-10-13T22:29:58.782Z,18.20
2022-10-13T22:35:01.240Z,18.20
2022-10-13T22:40:03.889Z,18.10
2022-10-13T22:45:07.213Z,18.10
2022-10-13T22:50:10.245Z,18.20
2022-10-13T22:55:13.257Z,18.20
2022-10-13T23:00:16.242Z,18.10
2022-10-13T23:05:19.000Z,18.20
2022-10-13T23:10:21.550Z,18.00
2022-10-13T23:15:24.030Z,18.10
2022-10-13T23:20:26.407Z,18.10
2022-10-13T23:25:28.897Z,18.00
2022-10-13T23:30:32.051Z,18.00
2022-10-13T23:35:34.543Z,18.00
2022-10-13T23:40:36.993Z,18.00
2022-10-13T23:45:39.401Z,18.00
2022-10-13T23:50:42.598Z,18.10
2022-10-13T23:55:45.117Z,18.00
